Terminal Aerodrome Forecast
Issued by NWS Charleston, WV

Current Version | Previous Version | Text Only | Print | Product List | Glossary Off
Versions: 1 2 3 4 5 6 7 8 9 10 11 12 13 14 15 16 17 18 19 20 21 22 23 24 25

000
FTUS41 KRLX 210309 AAA
TAFCRW
TAF AMD
KCRW 210309Z 2103/2124 00000KT P6SM SCT250
     FM211000 00000KT 6SM BR SCT150
     FM211200 VRB03KT P6SM BKN070
     FM211500 24005KT P6SM BKN090=

USA.gov is the U.S. government's official web portal to all federal, state and local government web resources and services.